Time;durP1;ratioP1;P1;durP2;ratioP2;P2;SDS_P1;SDS_P2;PMS_P1;PMS_P2;Temp;Humidity;BMP_temperature;BMP_pressure;BME280_temperature;BME280_humidity;BME280_pressure;Samples;Min_cycle;Max_cycle;Signal;HPM_P1;HPM_P2
2021/11/12 00:12:22;;;;;;;26.25;13.10;;;;;;;2.47;91.12;96245.38;5065733;28;20505;-57
2021/11/12 00:14:50;;;;;;;18.17;12.05;;;;;;;2.33;92.54;96243.28;5054968;28;20045;-51
2021/11/12 00:17:20;;;;;;;19.83;13.32;;;;;;;2.26;93.22;96229.41;5070707;28;20040;-51
2021/11/12 00:19:49;;;;;;;21.67;12.63;;;;;;;2.16;93.85;96232.13;5067980;28;20094;-51
2021/11/12 00:22:17;;;;;;;30.83;13.77;;;;;;;2.10;94.72;96244.66;5055779;28;20051;-54
2021/11/12 00:24:44;;;;;;;18.73;13.15;;;;;;;2.18;95.03;96229.16;5069724;28;20045;-54
2021/11/12 00:27:11;;;;;;;23.85;14.30;;;;;;;2.09;95.33;96227.06;5073839;28;20072;-53
2021/11/12 00:29:46;;;;;;;21.02;13.73;;;;;;;2.23;95.37;96226.50;5054061;28;20131;-53
2021/11/12 00:32:38;;;;;;;17.55;13.48;;;;;;;2.26;95.40;96228.63;5069963;28;20044;-52
2021/11/12 00:38:05;;;;;;;20.63;14.05;;;;;;;2.30;94.95;96224.34;5042429;28;20079;-52
2021/11/12 00:40:42;;;;;;;32.92;13.70;;;;;;;2.37;94.77;96224.84;5064810;28;20124;-54
2021/11/12 00:46:09;;;;;;;19.25;13.13;;;;;;;2.55;93.74;96226.91;5072278;28;20037;-55
2021/11/12 00:48:33;;;;;;;22.45;14.48;;;;;;;2.60;93.94;96217.28;5065628;28;20502;-54
2021/11/12 00:56:27;;;;;;;20.15;13.48;;;;;;;2.76;93.09;96221.47;5071235;28;20067;-53
2021/11/12 00:58:56;;;;;;;21.17;14.63;;;;;;;2.67;93.68;96217.81;5071759;28;20044;-53
2021/11/12 01:01:25;;;;;;;30.70;13.85;;;;;;;2.80;92.92;96219.88;5062929;22;20041;-54
2021/11/12 01:03:54;;;;;;;22.10;14.48;;;;;;;2.68;94.09;96220.19;5052380;28;20045;-59
2021/11/12 01:06:21;;;;;;;19.13;13.75;;;;;;;2.79;93.51;96221.75;5053516;28;20064;-55
2021/11/12 01:08:49;;;;;;;19.35;14.68;;;;;;;2.87;93.48;96219.56;5034178;28;20163;-56
2021/11/12 01:11:18;;;;;;;26.00;14.60;;;;;;;2.78;93.39;96219.34;5055241;28;20396;-55
2021/11/12 01:13:48;;;;;;;20.02;14.93;;;;;;;2.81;93.39;96213.44;5065804;28;20041;-57
2021/11/12 01:16:16;;;;;;;20.75;14.98;;;;;;;2.75;94.01;96214.53;5066359;28;20186;-55
2021/11/12 01:18:43;;;;;;;31.27;15.50;;;;;;;2.58;94.41;96213.00;5053308;28;20480;-56
2021/11/12 01:21:12;;;;;;;23.42;15.00;;;;;;;2.47;94.88;96216.81;5053912;28;20056;-56
2021/11/12 01:23:42;;;;;;;27.25;15.30;;;;;;;2.35;95.58;96208.31;5061662;28;20041;-56
2021/11/12 01:26:10;;;;;;;21.30;14.63;;;;;;;2.31;96.46;96215.28;5063765;28;20108;-57
2021/11/12 01:28:38;;;;;;;21.73;14.88;;;;;;;2.43;96.14;96214.94;5064709;28;20087;-56
2021/11/12 01:31:05;;;;;;;19.73;14.27;;;;;;;2.62;95.15;96215.13;5062239;28;20075;-56
2021/11/12 01:33:33;;;;;;;18.65;13.65;;;;;;;2.69;94.37;96212.97;5053276;28;20054;-56
2021/11/12 01:36:15;;;;;;;19.58;13.65;;;;;;;2.77;94.17;96202.50;5068010;28;20116;-57
2021/11/12 01:38:42;;;;;;;21.02;13.98;;;;;;;2.89;93.70;96210.19;5054752;28;20059;-56
2021/11/12 01:41:09;;;;;;;23.02;13.90;;;;;;;2.90;93.94;96211.00;5059141;28;20047;-57
2021/11/12 01:43:42;;;;;;;18.27;13.73;;;;;;;2.90;93.60;96209.13;5050850;28;20076;-57
2021/11/12 01:56:39;;;;;;;18.85;12.88;;;;;;;2.98;92.83;96197.84;5063206;28;20472;-57
2021/11/12 02:01:45;;;;;;;15.48;12.38;;;;;;;2.78;93.70;96193.41;5049435;28;20128;-50
2021/11/12 02:04:19;;;;;;;33.00;14.70;;;;;;;3.14;92.79;96190.50;5069447;28;20052;-54
2021/11/12 02:06:46;;;;;;;19.48;12.45;;;;;;;2.84;93.04;96185.38;5063110;28;20549;-53
2021/11/12 02:09:21;;;;;;;17.77;12.30;;;;;;;2.69;93.52;96173.69;5050798;28;20378;-52
2021/11/12 02:11:51;;;;;;;19.92;12.90;;;;;;;2.63;93.85;96176.66;5056265;28;20036;-55
2021/11/12 02:14:20;;;;;;;20.77;11.63;;;;;;;2.96;92.01;96178.63;5053745;28;20047;-50
2021/11/12 02:17:09;;;;;;;16.13;11.98;;;;;;;2.93;91.92;96173.81;5071508;28;20490;-50
2021/11/12 02:19:37;;;;;;;24.27;12.60;;;;;;;2.87;91.54;96174.94;5046483;28;20048;-52
2021/11/12 02:22:09;;;;;;;14.85;10.93;;;;;;;2.82;91.80;96180.28;5058342;28;20105;-50
2021/11/12 02:24:40;;;;;;;24.27;12.45;;;;;;;3.03;90.98;96181.78;5053939;28;20044;-54
2021/11/12 02:27:11;;;;;;;19.60;11.55;;;;;;;2.77;91.86;96169.66;5070415;28;20137;-54
2021/11/12 02:29:45;;;;;;;14.63;11.52;;;;;;;2.63;92.65;96168.66;5067984;28;20079;-53
2021/11/12 02:32:18;;;;;;;23.95;11.82;;;;;;;2.57;92.52;96163.34;5049259;28;20099;-56
2021/11/12 02:34:47;;;;;;;19.40;10.90;;;;;;;2.68;92.29;96163.28;5057720;28;20135;-51
2021/11/12 02:37:14;;;;;;;28.63;11.25;;;;;;;2.64;92.39;96157.69;5056402;28;20436;-51
2021/11/12 02:39:42;;;;;;;23.65;10.90;;;;;;;2.88;91.91;96155.13;5051376;28;20432;-55
2021/11/12 02:42:09;;;;;;;23.25;10.50;;;;;;;3.00;91.07;96150.25;5057364;28;20127;-54
2021/11/12 02:44:37;;;;;;;17.83;10.00;;;;;;;2.75;91.18;96139.72;5063249;28;20048;-52
2021/11/12 02:47:04;;;;;;;21.17;10.18;;;;;;;2.68;90.69;96139.25;5046773;28;20051;-55
2021/11/12 02:49:31;;;;;;;10.65;8.68;;;;;;;2.68;90.79;96134.69;5066438;28;20164;-52
2021/11/12 02:51:58;;;;;;;10.82;8.82;;;;;;;2.59;91.63;96139.03;5056882;28;20083;-53
2021/11/12 02:54:26;;;;;;;27.48;9.82;;;;;;;2.75;90.48;96131.72;5047902;28;20045;-55
2021/11/12 02:56:57;;;;;;;10.98;8.82;;;;;;;2.63;91.11;96140.06;5071747;28;20075;-52
2021/11/12 02:59:25;;;;;;;12.65;8.80;;;;;;;2.94;90.76;96137.19;5059393;28;20079;-53
2021/11/12 03:01:53;;;;;;;18.15;9.30;;;;;;;2.77;90.99;96137.59;5051630;28;20043;-54
2021/11/12 03:04:20;;;;;;;28.48;8.60;;;;;;;3.00;89.83;96139.56;5058134;28;20041;-52
2021/11/12 03:06:48;;;;;;;10.98;8.50;;;;;;;2.66;90.63;96142.19;5068995;28;20046;-53
2021/11/12 03:09:15;;;;;;;11.95;8.38;;;;;;;2.51;91.24;96124.38;5050972;28;20404;-52
2021/11/12 03:11:43;;;;;;;11.63;8.43;;;;;;;2.61;91.22;96126.19;5058011;28;20454;-54
2021/11/12 03:14:12;;;;;;;11.40;8.27;;;;;;;2.69;90.18;96130.94;5065451;28;20510;-54
2021/11/12 03:16:39;;;;;;;16.33;8.73;;;;;;;2.53;90.73;96135.56;5069835;28;20041;-55
2021/11/12 03:19:09;;;;;;;9.52;8.13;;;;;;;2.44;91.04;96131.91;5049341;28;20047;-53
2021/11/12 03:21:39;;;;;;;14.48;9.48;;;;;;;2.47;91.31;96134.03;5049478;28;20049;-55
2021/11/12 03:24:23;;;;;;;12.35;8.60;;;;;;;2.21;92.26;96135.19;5056623;28;20063;-56
2021/11/12 04:00:09;;;;;;;10.32;8.43;;;;;;;2.96;88.98;96127.84;5064130;28;20048;-56
2021/11/12 05:45:09;;;;;;;12.13;8.20;;;;;;;2.09;91.24;96114.97;5058340;28;20128;-55
2021/11/12 05:50:17;;;;;;;11.95;7.88;;;;;;;2.04;91.53;96114.97;5051510;28;20045;-50
2021/11/12 05:55:30;;;;;;;9.18;7.22;;;;;;;1.98;91.50;96116.09;5042616;28;20056;-51
2021/11/12 05:57:59;;;;;;;16.90;8.65;;;;;;;1.82;92.07;96119.84;5061055;28;20123;-53
2021/11/12 06:00:26;;;;;;;15.90;8.77;;;;;;;1.76;92.57;96110.28;5066272;28;20433;-52
2021/11/12 06:02:53;;;;;;;10.32;8.27;;;;;;;1.57;93.04;96116.19;5059677;28;20082;-52
2021/11/12 06:05:21;;;;;;;11.50;7.93;;;;;;;1.61;93.38;96121.78;5049774;28;20044;-50
2021/11/12 06:07:48;;;;;;;10.50;8.00;;;;;;;1.70;92.86;96116.72;5054033;28;20148;-52
2021/11/12 06:10:17;;;;;;;10.07;7.72;;;;;;;1.80;92.98;96117.47;5072723;28;20119;-52
2021/11/12 06:12:45;;;;;;;10.32;7.80;;;;;;;1.81;92.85;96119.06;5053460;28;20414;-53
2021/11/12 06:15:12;;;;;;;11.07;8.40;;;;;;;1.69;93.19;96110.59;5070667;28;20048;-50
2021/11/12 06:17:39;;;;;;;12.25;8.95;;;;;;;1.61;93.61;96114.59;5068704;28;20051;-51
2021/11/12 06:20:06;;;;;;;12.05;7.90;;;;;;;1.52;93.87;96116.19;5066006;28;20044;-51
2021/11/12 06:22:33;;;;;;;10.57;8.48;;;;;;;1.44;94.32;96116.75;5049890;28;20067;-56
2021/11/12 06:25:00;;;;;;;11.18;7.82;;;;;;;1.51;94.61;96114.59;5060148;28;20040;-56
2021/11/12 06:27:29;;;;;;;10.77;7.47;;;;;;;1.58;93.99;96107.13;5054536;28;20039;-56
2021/11/12 06:29:56;;;;;;;11.65;7.72;;;;;;;1.57;93.98;96105.53;5065029;28;20074;-56
2021/11/12 06:32:24;;;;;;;11.85;9.15;;;;;;;1.73;93.68;96097.50;5067154;28;20044;-54
2021/11/12 06:34:51;;;;;;;11.93;8.93;;;;;;;1.84;92.81;96091.84;5056960;28;20037;-55
2021/11/12 06:37:18;;;;;;;10.20;8.25;;;;;;;1.76;93.31;96108.41;5051462;28;20051;-55
2021/11/12 06:39:46;;;;;;;13.30;8.60;;;;;;;1.95;92.77;96105.97;5057774;28;20036;-56
2021/11/12 06:42:18;;;;;;;11.55;8.27;;;;;;;2.00;91.81;96100.59;5043994;28;20053;-55
2021/11/12 06:52:29;;;;;;;10.98;8.38;;;;;;;2.27;90.87;96107.41;5049467;28;20493;-53
2021/11/12 06:54:59;;;;;;;12.70;7.50;;;;;;;2.33;90.44;96099.09;5051302;28;20129;-55
2021/11/12 06:57:26;;;;;;;10.88;8.55;;;;;;;2.02;90.96;96098.47;5051899;28;20107;-52
2021/11/12 06:59:53;;;;;;;10.73;8.40;;;;;;;1.75;92.19;96106.00;5051812;28;20608;-55
2021/11/12 07:02:22;;;;;;;10.07;8.15;;;;;;;1.84;92.73;96104.38;5075723;22;20092;-51
2021/11/12 07:04:50;;;;;;;10.82;8.57;;;;;;;1.88;92.34;96110.78;5084406;28;20044;-50
2021/11/12 07:07:18;;;;;;;10.63;8.25;;;;;;;2.03;92.32;96108.06;5090971;28;20040;-50
2021/11/12 07:09:46;;;;;;;10.50;7.57;;;;;;;1.89;91.92;96107.03;5060208;28;20843;-53
2021/11/12 07:12:14;;;;;;;12.82;7.97;;;;;;;1.75;92.53;96106.00;5080316;28;20045;-54
2021/11/12 07:14:45;;;;;;;10.63;7.40;;;;;;;1.75;92.69;96101.47;5088231;28;20036;-50
2021/11/12 07:17:13;;;;;;;10.90;8.20;;;;;;;1.61;93.60;96103.13;5071004;28;20040;-50
2021/11/12 07:19:41;;;;;;;12.52;8.02;;;;;;;1.66;94.16;96091.63;5070848;28;20102;-49
2021/11/12 07:22:10;;;;;;;11.75;8.80;;;;;;;1.63;94.42;96096.44;5089546;28;20485;-55
2021/11/12 07:24:37;;;;;;;42.47;9.18;;;;;;;1.77;93.37;96107.34;5080424;28;20052;-48
2021/11/12 07:27:06;;;;;;;12.20;8.13;;;;;;;1.81;93.27;96110.25;5078129;28;20068;-52
2021/11/12 07:29:35;;;;;;;10.30;8.02;;;;;;;1.94;92.71;96114.22;5071357;28;20515;-49
2021/11/12 07:32:06;;;;;;;13.45;7.55;;;;;;;2.07;92.51;96114.44;5079684;28;20079;-48
2021/11/12 07:34:34;;;;;;;57.60;9.32;;;;;;;2.07;91.68;96109.09;5078831;28;20111;-48
2021/11/12 07:37:07;;;;;;;70.13;10.20;;;;;;;2.08;91.73;96116.06;5091523;28;20042;-51
2021/11/12 07:45:04;;;;;;;11.38;8.00;;;;;;;1.68;93.59;96110.84;5085566;28;20124;-53
2021/11/12 07:47:35;;;;;;;10.57;7.70;;;;;;;1.59;94.18;96107.91;5087805;28;20074;-52
2021/11/12 07:50:12;;;;;;;10.10;7.18;;;;;;;1.53;94.58;96099.16;5058306;28;20102;-54
2021/11/12 07:52:39;;;;;;;9.85;7.28;;;;;;;1.69;94.49;96101.75;5070104;28;20048;-50
2021/11/12 07:55:12;;;;;;;10.68;7.20;;;;;;;1.81;94.14;96104.94;5071008;28;20045;-51
2021/11/12 07:57:39;;;;;;;11.45;6.70;;;;;;;2.05;92.85;96111.25;5087379;28;20127;-52
2021/11/12 08:00:07;;;;;;;21.05;8.95;;;;;;;1.87;92.79;96093.97;5073347;28;20123;-48
2021/11/12 08:02:37;;;;;;;11.25;7.68;;;;;;;1.82;92.74;96090.50;5074389;28;20117;-50
2021/11/12 08:05:14;;;;;;;14.57;7.40;;;;;;;1.64;93.36;96095.38;5071873;28;20071;-48
2021/11/12 08:07:42;;;;;;;11.95;7.82;;;;;;;1.61;94.43;96095.13;5071014;28;20043;-50
2021/11/12 08:10:12;;;;;;;12.55;8.50;;;;;;;1.67;94.22;96098.59;5071049;28;20049;-51
2021/11/12 08:12:42;;;;;;;11.32;7.32;;;;;;;1.80;93.94;96103.34;5070040;28;20041;-48
2021/11/12 08:15:41;;;;;;;10.65;7.78;;;;;;;1.88;93.76;96097.44;5071963;28;20055;-57
2021/11/12 08:18:26;;;;;;;9.07;6.47;;;;;;;1.73;93.46;96105.50;5071213;28;20040;-50
2021/11/12 08:20:59;;;;;;;11.15;7.20;;;;;;;1.75;93.75;96101.47;5077996;28;20048;-48
2021/11/12 08:24:03;;;;;;;10.80;7.47;;;;;;;1.82;94.64;96095.84;5070005;28;20033;-51
2021/11/12 08:26:36;;;;;;;9.77;7.50;;;;;;;2.18;94.22;96096.53;5091470;28;20040;-50
2021/11/12 08:41:58;;;;;;;10.05;7.22;;;;;;;2.36;92.73;96081.72;5055753;28;20087;-51
2021/11/12 08:47:14;;;;;;;9.75;7.28;;;;;;;2.43;92.19;96078.75;5093981;28;20147;-51
2021/11/12 08:49:43;;;;;;;10.68;7.43;;;;;;;2.48;91.41;96076.06;5056277;28;20040;-48
2021/11/12 08:52:14;;;;;;;11.10;6.90;;;;;;;2.56;92.05;96083.47;5074509;28;20055;-49
2021/11/12 08:54:44;;;;;;;11.20;7.15;;;;;;;2.69;90.34;96076.72;5060619;28;20059;-53
2021/11/12 08:57:15;;;;;;;10.55;7.30;;;;;;;2.70;90.87;96070.31;5074717;28;20119;-48
2021/11/12 08:59:43;;;;;;;9.55;6.85;;;;;;;2.84;90.23;96079.28;5080186;28;20069;-48
2021/11/12 09:02:14;;;;;;;9.18;7.22;;;;;;;2.63;90.97;96062.59;5078874;28;20050;-49
2021/11/12 09:04:43;;;;;;;10.18;7.55;;;;;;;2.47;92.74;96061.91;5092877;28;20069;-51
2021/11/12 09:07:11;;;;;;;11.20;7.40;;;;;;;2.48;92.99;96066.19;5093965;28;20040;-49
2021/11/12 09:09:40;;;;;;;10.18;7.65;;;;;;;2.61;91.48;96056.75;5087818;28;20093;-49
2021/11/12 09:12:09;;;;;;;11.40;7.60;;;;;;;2.67;90.92;96068.19;5073485;28;20470;-53
2021/11/12 09:14:43;;;;;;;12.32;8.10;;;;;;;2.60;92.31;96062.34;5073253;28;20138;-48
2021/11/12 09:17:11;;;;;;;10.38;7.28;;;;;;;2.68;92.18;96056.44;5073425;28;20045;-49
2021/11/12 09:19:50;;;;;;;815.28;59.00;;;;;;;2.69;91.78;96055.34;5071171;28;20048;-50
2021/11/12 09:22:20;;;;;;;37.28;9.10;;;;;;;2.65;91.68;96054.31;5078753;28;20059;-49
2021/11/12 09:24:48;;;;;;;9.85;7.63;;;;;;;2.72;91.37;96049.44;5074629;28;20207;-50
2021/11/12 09:27:15;;;;;;;11.45;7.20;;;;;;;2.82;90.45;96049.34;5073224;28;20096;-50
2021/11/12 09:29:44;;;;;;;22.33;7.60;;;;;;;2.67;92.36;96052.16;5092030;28;20044;-48
2021/11/12 09:32:11;;;;;;;10.23;7.22;;;;;;;2.98;89.87;96056.16;5107400;28;20044;-51
2021/11/12 09:34:38;;;;;;;11.30;8.25;;;;;;;2.76;90.96;96047.81;5090767;28;20161;-48
2021/11/12 09:37:09;;;;;;;12.52;7.88;;;;;;;2.57;92.29;96040.47;5072108;28;20105;-48
2021/11/12 09:39:40;;;;;;;19.67;8.25;;;;;;;2.89;91.80;96044.50;5073282;28;20042;-51
2021/11/12 09:42:09;;;;;;;11.05;7.80;;;;;;;3.02;90.04;96048.38;5077183;28;20045;-52
2021/11/12 09:44:36;;;;;;;10.85;7.50;;;;;;;3.06;90.57;96051.31;5054920;28;20053;-53
2021/11/12 09:47:04;;;;;;;12.55;7.00;;;;;;;3.06;90.10;96049.44;5073349;28;20123;-52
2021/11/12 09:49:31;;;;;;;10.32;7.57;;;;;;;3.07;89.61;96035.00;5072714;28;20116;-51
2021/11/12 09:51:59;;;;;;;11.52;8.07;;;;;;;2.99;89.98;96039.09;5091325;28;20048;-50
2021/11/12 09:54:28;;;;;;;13.15;7.82;;;;;;;2.70;92.15;96039.06;5078406;28;20055;-49
2021/11/12 09:56:54;;;;;;;11.57;7.68;;;;;;;2.68;92.02;96030.50;5075793;28;20028;-50
2021/11/12 09:59:21;;;;;;;10.70;7.50;;;;;;;2.60;92.29;96033.78;5093040;28;20040;-51
2021/11/12 10:01:48;;;;;;;12.23;8.25;;;;;;;2.48;92.39;96031.47;5081136;28;20051;-51
2021/11/12 10:04:16;;;;;;;10.82;7.82;;;;;;;2.55;92.74;96039.16;5072043;28;20049;-52
2021/11/12 10:06:45;;;;;;;8.98;6.90;;;;;;;2.69;92.83;96033.97;5073419;28;20041;-51
2021/11/12 10:09:17;;;;;;;12.27;8.00;;;;;;;2.90;92.22;96022.06;5083492;28;20063;-52
2021/11/12 10:11:50;;;;;;;11.73;7.95;;;;;;;2.95;92.09;96022.00;5072808;28;20120;-50
2021/11/12 10:14:43;;;;;;;12.10;8.40;;;;;;;2.88;92.75;96020.72;5092098;28;20475;-52
2021/11/12 10:17:11;;;;;;;10.65;7.63;;;;;;;2.83;92.09;96010.91;5087776;28;20032;-53
2021/11/12 10:19:41;;;;;;;11.05;8.35;;;;;;;2.76;92.09;96013.06;5072379;28;20143;-49
2021/11/12 10:22:09;;;;;;;10.65;7.78;;;;;;;2.82;92.66;96014.63;5075872;28;20058;-52
2021/11/12 10:24:51;;;;;;;10.27;6.97;;;;;;;2.93;92.55;96000.13;5075219;28;20040;-50
2021/11/12 10:27:23;;;;;;;12.70;8.27;;;;;;;3.18;92.22;95991.03;5074151;28;20043;-49
2021/11/12 10:29:53;;;;;;;10.90;7.97;;;;;;;3.14;92.22;95990.00;5092865;28;20054;-50
2021/11/12 10:32:26;;;;;;;11.48;8.07;;;;;;;3.14;92.14;95986.53;5082451;28;20039;-52
2021/11/12 10:34:56;;;;;;;;;;;;;;;3.22;91.74;95980.59;5091521;28;20043;-51
2021/11/12 10:37:34;;;;;;;10.75;7.63;;;;;;;3.48;91.20;95981.88;5072203;28;19921;-52
2021/11/12 10:40:07;;;;;;;12.38;8.57;;;;;;;3.32;91.15;95979.69;5073284;28;20143;-51
2021/11/12 10:42:40;;;;;;;9.88;7.18;;;;;;;3.31;91.25;95986.88;5091458;28;20040;-49
2021/11/12 10:45:09;;;;;;;13.23;7.88;;;;;;;3.35;90.65;95987.94;5089214;28;20040;-49
2021/11/12 10:47:51;;;;;;;12.05;8.43;;;;;;;3.29;92.21;95989.06;5071799;28;20052;-51
2021/11/12 10:50:21;;;;;;;10.55;8.07;;;;;;;3.25;91.97;95977.31;5075096;28;20042;-49
2021/11/12 10:52:49;;;;;;;12.00;8.07;;;;;;;3.60;91.24;95969.97;5073363;28;20040;-52
2021/11/12 10:55:25;;;;;;;13.85;7.85;;;;;;;3.57;91.02;95965.19;5071523;28;20051;-50
2021/11/12 10:58:06;;;;;;;11.68;8.82;;;;;;;3.49;90.13;95961.28;5079081;28;20058;-49
2021/11/12 11:00:35;;;;;;;21.27;7.93;;;;;;;3.56;89.79;95969.75;5091982;28;20054;-53
2021/11/12 11:03:11;;;;;;;12.00;7.68;;;;;;;3.68;89.39;95964.78;5084702;28;20101;-50
2021/11/12 11:05:38;;;;;;;11.90;8.60;;;;;;;3.87;89.56;95953.31;5091855;28;20040;-49
2021/11/12 11:08:08;;;;;;;11.50;8.07;;;;;;;3.47;90.81;95955.41;5082529;28;20124;-49
2021/11/12 11:10:38;;;;;;;11.20;7.32;;;;;;;3.64;90.83;95944.22;5071431;28;20063;-49
2021/11/12 11:13:09;;;;;;;11.75;7.93;;;;;;;3.89;89.54;95948.47;5070980;28;20466;-50
2021/11/12 11:15:47;;;;;;;9.82;7.47;;;;;;;3.88;88.67;95947.66;5071703;28;20474;-49
2021/11/12 11:18:30;;;;;;;11.77;8.02;;;;;;;3.65;90.20;95945.84;5080875;28;20047;-51
2021/11/12 11:23:51;;;;;;;10.90;7.38;;;;;;;3.75;90.39;95943.03;5075889;28;20062;-51
2021/11/12 11:26:24;;;;;;;9.97;7.60;;;;;;;3.69;90.13;95944.19;5071363;28;20512;-50
2021/11/12 11:28:59;;;;;;;10.80;7.78;;;;;;;3.53;91.79;95938.22;5071485;28;20423;-51
2021/11/12 11:31:28;;;;;;;11.50;8.18;;;;;;;3.59;91.56;95950.44;5091358;28;20136;-51
2021/11/12 11:33:55;;;;;;;10.52;8.35;;;;;;;3.54;90.98;95952.38;5081500;28;20044;-51
2021/11/12 11:36:25;;;;;;;11.00;8.07;;;;;;;3.46;91.91;95941.25;5077151;28;20124;-51
2021/11/12 11:38:53;;;;;;;10.48;7.30;;;;;;;3.48;92.23;95936.41;5071314;28;20450;-51
2021/11/12 11:41:23;;;;;;;10.43;7.90;;;;;;;3.71;91.22;95932.09;5083194;28;20493;-51
2021/11/12 11:43:51;;;;;;;14.10;8.32;;;;;;;3.81;90.65;95923.16;5078526;28;20060;-50
2021/11/12 11:46:27;;;;;;;12.35;7.78;;;;;;;3.72;91.15;95922.19;5072170;28;20045;-50
2021/11/12 11:48:59;;;;;;;11.25;8.63;;;;;;;3.72;91.52;95925.66;5072305;28;20036;-50
2021/11/12 11:51:38;;;;;;;10.30;7.70;;;;;;;3.91;90.13;95920.31;5091235;28;20048;-51
2021/11/12 11:54:07;;;;;;;12.10;8.07;;;;;;;3.91;90.25;95920.31;5074227;28;20390;-50
2021/11/12 11:56:42;;;;;;;11.50;8.05;;;;;;;3.82;90.55;95910.56;5091326;28;20148;-49
2021/11/12 11:59:28;;;;;;;12.10;8.88;;;;;;;3.64;91.18;95899.56;5083774;28;20049;-48
2021/11/12 12:02:04;;;;;;;12.05;8.15;;;;;;;3.68;91.57;95900.56;5073440;28;20055;-51
2021/11/12 12:04:38;;;;;;;10.35;8.00;;;;;;;3.87;91.69;95903.25;5079349;28;20040;-48
2021/11/12 12:07:10;;;;;;;11.45;8.35;;;;;;;3.99;90.39;95916.19;5095035;28;20040;-52
2021/11/12 12:09:46;;;;;;;11.05;8.27;;;;;;;4.24;89.33;95912.34;5089118;28;20053;-49
2021/11/12 12:12:36;;;;;;;11.38;8.10;;;;;;;4.20;89.43;95914.00;5074007;28;20050;-50
2021/11/12 12:15:05;;;;;;;11.77;7.97;;;;;;;4.22;89.06;95915.31;5083753;28;20055;-51
2021/11/12 12:17:40;;;;;;;12.85;8.90;;;;;;;4.17;89.30;95907.34;5095002;28;20039;-50
2021/11/12 13:20:40;;;;;;;12.70;8.20;;;;;;;4.28;91.37;95862.44;5073682;28;20094;-48
2021/11/12 13:26:04;;;;;;;14.00;8.68;;;;;;;4.41;90.75;95858.22;5074419;28;20101;-50
2021/11/12 13:28:44;;;;;;;16.80;9.80;;;;;;;4.58;90.40;95852.28;5085708;28;20405;-51
2021/11/12 13:31:22;;;;;;;17.77;9.57;;;;;;;4.79;88.74;95861.56;5087632;28;20044;-48
2021/11/12 13:33:57;;;;;;;18.42;9.80;;;;;;;5.09;87.58;95862.84;5072482;28;20753;-48
2021/11/12 13:36:30;;;;;;;11.48;8.10;;;;;;;4.87;88.55;95855.50;5074452;28;20068;-49
2021/11/12 13:39:07;;;;;;;15.30;10.38;;;;;;;5.04;87.66;95860.28;5073239;28;20041;-52
2021/11/12 13:41:36;;;;;;;14.02;8.95;;;;;;;4.85;88.33;95852.34;5080477;28;20040;-49
2021/11/12 13:44:09;;;;;;;14.07;9.90;;;;;;;5.30;86.58;95852.53;5092663;28;20048;-50
2021/11/12 13:46:49;;;;;;;16.63;9.53;;;;;;;4.72;89.33;95849.66;5104453;28;20119;-49
2021/11/12 13:49:37;;;;;;;16.60;10.45;;;;;;;4.55;90.66;95844.84;5090530;28;20331;-50
2021/11/12 13:52:12;;;;;;;13.48;8.68;;;;;;;4.42;91.29;95828.47;5084243;28;20039;-52
2021/11/12 13:54:43;;;;;;;14.02;9.50;;;;;;;4.29;91.36;95833.78;5077585;28;20123;-48
2021/11/12 13:57:16;;;;;;;15.27;9.52;;;;;;;4.21;92.18;95835.25;5086845;28;20040;-51
2021/11/12 13:59:57;;;;;;;15.48;9.77;;;;;;;4.24;92.46;95834.69;5093160;28;20044;-49
2021/11/12 14:02:28;;;;;;;16.65;10.40;;;;;;;4.24;92.93;95840.03;5076148;28;20047;-48
2021/11/12 14:05:13;;;;;;;15.13;9.50;;;;;;;4.37;92.68;95841.16;5072718;28;20044;-47
2021/11/12 14:07:40;;;;;;;14.20;9.35;;;;;;;4.44;91.63;95841.56;5090571;28;20044;-49
2021/11/12 14:10:10;;;;;;;15.07;10.45;;;;;;;4.49;91.79;95833.44;5093056;28;20067;-50
2021/11/12 14:12:54;;;;;;;13.80;9.02;;;;;;;4.52;91.19;95838.22;5074390;28;20123;-49
2021/11/12 14:15:41;;;;;;;14.35;9.70;;;;;;;4.49;91.70;95828.09;5072466;28;20047;-48
2021/11/12 14:32:29;;;;;;;14.30;9.43;;;;;;;4.42;92.06;95825.78;5080331;28;20051;-48
2021/11/12 14:40:23;;;;;;;14.25;10.23;;;;;;;4.62;90.36;95818.47;5086991;28;20123;-50
2021/11/12 14:45:50;;;;;;;17.10;10.40;;;;;;;4.62;90.68;95813.91;5085011;28;20040;-52
2021/11/12 14:48:29;;;;;;;15.73;9.68;;;;;;;4.69;90.59;95821.56;5083715;28;20044;-48
2021/11/12 14:56:19;;;;;;;14.80;10.20;;;;;;;4.37;92.76;95814.38;5060041;28;20123;-49
2021/11/12 14:58:54;;;;;;;15.00;9.88;;;;;;;4.29;93.19;95807.81;5071925;28;20091;-51
2021/11/12 15:01:25;;;;;;;15.35;10.20;;;;;;;4.38;93.27;95803.34;5083431;28;20127;-51
2021/11/12 15:03:53;;;;;;;13.90;9.27;;;;;;;4.48;92.17;95804.25;5071143;28;20485;-48
2021/11/12 15:06:24;;;;;;;15.13;9.52;;;;;;;4.43;92.61;95802.47;5078007;28;20123;-50
2021/11/12 15:09:00;;;;;;;13.98;9.05;;;;;;;4.51;92.31;95803.66;5088345;28;20093;-48
2021/11/12 15:11:29;;;;;;;12.45;9.23;;;;;;;4.51;92.30;95801.00;5079727;28;20131;-49
2021/11/12 15:14:06;;;;;;;16.70;10.10;;;;;;;4.44;92.69;95804.84;5070846;28;20047;-50
2021/11/12 15:16:39;;;;;;;13.70;9.32;;;;;;;4.24;93.66;95804.44;5084976;28;20513;-51
2021/11/12 15:19:10;;;;;;;14.05;8.98;;;;;;;4.23;94.21;95798.28;5085012;28;20158;-48
2021/11/12 15:24:23;;;;;;;16.52;10.32;;;;;;;4.09;94.39;95803.59;5079214;28;20118;-48
2021/11/12 15:29:25;;;;;;;14.18;8.50;;;;;;;4.04;95.25;95795.66;5091881;28;20127;-51
2021/11/12 15:32:02;;;;;;;13.27;8.93;;;;;;;4.15;94.26;95807.75;5103025;28;20131;-53
2021/11/12 15:34:31;;;;;;;12.27;8.48;;;;;;;4.19;94.50;95805.28;5071193;28;20131;-51
2021/11/12 15:37:05;;;;;;;12.77;8.95;;;;;;;4.07;94.66;95802.31;5091506;28;20130;-50
2021/11/12 15:39:41;;;;;;;13.55;9.52;;;;;;;3.94;95.26;95787.78;5096391;28;20040;-50
2021/11/12 15:47:45;;;;;;;15.75;9.70;;;;;;;4.02;95.46;95797.03;5075133;28;20131;-51
2021/11/12 16:08:55;;;;;;;19.60;10.88;;;;;;;4.07;95.07;95789.72;5088212;28;20036;-51
2021/11/12 16:11:35;;;;;;;17.27;11.20;;;;;;;3.93;96.04;95792.34;5087085;28;20120;-52
2021/11/12 16:14:18;;;;;;;16.80;10.23;;;;;;;3.86;96.18;95796.47;5088066;28;20560;-51
2021/11/12 16:23:19;;;;;;;14.77;9.70;;;;;;;4.12;95.64;95805.66;5012261;28;20129;-48
2021/11/12 16:25:47;;;;;;;17.02;10.30;;;;;;;4.07;95.86;95796.94;5016387;28;20054;-51
2021/11/12 16:28:20;;;;;;;15.90;10.48;;;;;;;4.20;95.29;95798.88;5062140;28;20378;-48
2021/11/12 16:30:56;;;;;;;17.35;10.98;;;;;;;4.07;95.52;95803.09;5076449;28;20047;-49
2021/11/12 16:33:25;;;;;;;15.82;10.98;;;;;;;4.02;95.86;95797.03;5081562;28;20129;-52
2021/11/12 16:35:54;;;;;;;19.17;11.50;;;;;;;3.94;96.13;95788.59;5091899;28;20067;-52
2021/11/12 16:38:23;;;;;;;18.83;11.93;;;;;;;3.91;96.90;95796.41;5078037;28;20036;-49
2021/11/12 16:40:57;;;;;;;17.02;10.77;;;;;;;3.88;97.01;95797.00;5094556;28;20075;-48
2021/11/12 16:43:36;;;;;;;20.15;12.23;;;;;;;3.80;97.43;95803.78;5074776;28;20032;-49
2021/11/12 16:46:16;;;;;;;18.30;11.68;;;;;;;3.76;97.91;95800.09;5094011;28;20131;-48
2021/11/12 16:48:55;;;;;;;19.80;11.90;;;;;;;3.72;98.13;95804.47;5082262;28;20095;-51
2021/11/12 17:02:14;;;;;;;19.50;11.27;;;;;;;3.54;99.36;95790.00;5085563;28;20055;-49
2021/11/12 17:05:19;;;;;;;22.38;10.50;;;;;;;3.59;99.34;95789.16;5073859;28;20571;-48
2021/11/12 17:10:19;;;;;;;16.02;9.95;;;;;;;3.82;98.92;95808.84;5063708;28;20139;-49
2021/11/12 17:48:42;;;;;;;14.65;9.60;;;;;;;4.34;95.75;95813.06;5075883;28;20094;-51
2021/11/12 18:02:04;;;;;;;15.18;10.10;;;;;;;4.66;94.13;95811.44;5080001;28;20131;-51
2021/11/12 18:07:15;;;;;;;;;;;;;;;4.70;93.77;95823.13;5090239;28;20439;-45
2021/11/12 21:48:31;;;;;;;30.75;13.60;;;;;;;5.23;89.72;95792.31;5097309;27;20381;-57
2021/11/12 21:50:59;;;;;;;46.17;16.42;;;;;;;5.00;90.92;95780.72;5089610;28;20067;-56
2021/11/12 21:53:32;;;;;;;22.05;13.02;;;;;;;4.74;91.85;95786.59;5111393;28;20404;-56
2021/11/12 21:56:01;;;;;;;22.73;12.90;;;;;;;4.62;92.93;95787.13;5105875;28;20035;-56
2021/11/12 21:58:29;;;;;;;27.15;13.70;;;;;;;5.23;89.92;95787.75;5095004;28;20119;-56
2021/11/12 22:00:58;;;;;;;20.38;13.27;;;;;;;4.67;91.95;95784.31;5111631;27;20039;-53
2021/11/12 22:03:30;;;;;;;24.30;15.02;;;;;;;4.47;93.36;95776.69;5107438;28;20458;-56
2021/11/12 22:05:58;;;;;;;21.48;13.23;;;;;;;4.32;94.02;95780.44;5113184;28;20040;-57
2021/11/12 22:08:29;;;;;;;18.27;11.93;;;;;;;4.43;94.02;95773.78;5110288;28;20046;-57